Decoded Metar for LESA (SALAMANCA in SPAIN) (IATA:SLM) | Meteo·Mobile Aviation Weather
aviador You're here:

LESA Decoded Metar

SALAMANCA in SPAIN
Report Time2019-10-21 07:30:00
UTC Time2019-10-21 07:42:31
Flight Rules lifr LIFR
WindVRB at 01 kt
Visibility0300 m
Phenomena:Patches Fog
Clouds:Few 001 Hf
Expected CloudBase > 400 ft AGL from Temp-Dew spread
CeilingNone
Temp01°C (ISA -9)
Dew Point00°C (93% RH)
AAT-1.3°C
QNH1018 hPa
Density Alt1,463 ft
Elevation2,608 ft
Report Wrong Elevation
Raw Report
LESA 210730Z VRB01KT 0300 R21/0400N BCFG FEW001 01/00 Q1018=

Extra information for LESA:More info

Metar Taf Metar & Taf Last 4 Metars F.Rules Stats Wind Profile Meteogram Temp Stats Airport Information Weather charts Add Link Nearby VenuesMetar ALERT Operation Metar Decoded Social comments